Time;durP1;ratioP1;P1;durP2;ratioP2;P2;SDS_P1;SDS_P2;PMS_P1;PMS_P2;Temp;Humidity;BMP_temperature;BMP_pressure;BME280_temperature;BME280_humidity;BME280_pressure;Samples;Min_cycle;Max_cycle;Signal;HPM_P1;HPM_P2
2023/04/18 00:00:57;;;;;;;4.70;4.30;;;8.10;99.90;;;;;;5042311;28;20526;-78
2023/04/18 00:03:24;;;;;;;5.50;4.90;;;8.10;99.90;;;;;;5043615;28;20464;-78
2023/04/18 00:05:51;;;;;;;5.27;4.80;;;8.20;99.90;;;;;;5043727;28;20461;-78
2023/04/18 00:08:19;;;;;;;6.57;5.70;;;8.10;99.90;;;;;;5042432;28;20441;-78
2023/04/18 00:10:47;;;;;;;5.70;5.20;;;8.10;99.90;;;;;;5043975;28;20534;-78
2023/04/18 00:13:17;;;;;;;4.63;4.03;;;8.00;99.90;;;;;;5042084;28;20578;-78
2023/04/18 00:15:45;;;;;;;5.93;5.10;;;8.00;99.90;;;;;;5038097;28;20604;-78
2023/04/18 00:18:14;;;;;;;6.20;5.67;;;8.10;99.90;;;;;;5043747;28;20485;-78
2023/04/18 00:20:41;;;;;;;7.87;7.07;;;8.10;99.90;;;;;;5043940;28;20477;-79
2023/04/18 00:23:12;;;;;;;7.03;6.40;;;8.10;99.90;;;;;;5037774;28;20493;-78
2023/04/18 00:25:41;;;;;;;5.80;5.27;;;8.10;99.90;;;;;;5039322;28;20461;-81
2023/04/18 00:28:08;;;;;;;5.93;5.30;;;8.00;99.90;;;;;;5037266;28;20591;-77
2023/04/18 00:30:35;;;;;;;7.53;6.77;;;8.00;99.90;;;;;;5045660;28;20977;-77
2023/04/18 00:33:03;;;;;;;6.77;6.17;;;8.10;99.90;;;;;;5032533;28;20586;-77
2023/04/18 00:35:30;;;;;;;8.17;7.47;;;8.10;99.90;;;;;;5044972;28;20450;-77
2023/04/18 00:37:57;;;;;;;7.90;7.20;;;8.10;99.90;;;;;;5040549;28;20453;-77
2023/04/18 00:40:24;;;;;;;8.10;7.23;;;8.20;99.90;;;;;;5043267;28;20530;-77
2023/04/18 00:42:53;;;;;;;8.57;7.17;;;8.20;99.90;;;;;;5032790;28;20550;-77
2023/04/18 00:45:20;;;;;;;9.80;8.67;;;8.10;99.90;;;;;;5044672;28;20441;-77
2023/04/18 00:47:46;;;;;;;7.77;6.93;;;8.10;99.90;;;;;;5042543;28;20458;-77
2023/04/18 00:50:14;;;;;;;10.77;8.50;;;8.10;99.90;;;;;;5039413;28;20523;-77
2023/04/18 00:52:41;;;;;;;8.43;7.53;;;8.00;99.90;;;;;;5039390;28;20539;-77
2023/04/18 00:55:10;;;;;;;8.67;7.73;;;8.10;99.90;;;;;;5040445;28;20477;-77
2023/04/18 00:57:37;;;;;;;10.80;9.30;;;8.10;99.90;;;;;;5035826;28;20490;-77
2023/04/18 01:00:08;;;;;;;11.63;9.27;;;8.20;99.90;;;;;;5037707;28;20457;-77
2023/04/18 01:02:36;;;;;;;13.30;11.40;;;8.20;99.90;;;;;;5044561;28;20457;-77
2023/04/18 01:05:03;;;;;;;13.17;10.17;;;8.20;99.90;;;;;;5041484;28;20437;-77
2023/04/18 01:07:32;;;;;;;10.87;9.60;;;8.20;99.90;;;;;;5042273;28;20449;-77
2023/04/18 01:10:00;;;;;;;11.43;10.23;;;8.20;99.90;;;;;;5042888;28;20476;-77
2023/04/18 01:12:27;;;;;;;12.17;9.97;;;8.10;99.90;;;;;;5032353;28;20458;-77
2023/04/18 01:14:54;;;;;;;10.13;9.07;;;8.10;99.90;;;;;;5042090;28;20603;-77
2023/04/18 01:17:22;;;;;;;11.13;9.97;;;8.10;99.90;;;;;;5043642;28;20461;-77
2023/04/18 01:19:49;;;;;;;10.63;9.00;;;8.10;99.90;;;;;;5038339;28;20534;-77
2023/04/18 01:22:19;;;;;;;10.43;9.30;;;8.00;99.90;;;;;;5041805;28;20453;-77
2023/04/18 01:24:47;;;;;;;11.70;10.47;;;8.00;99.90;;;;;;5040263;28;20500;-77
2023/04/18 01:27:14;;;;;;;11.07;9.83;;;8.00;99.90;;;;;;5041892;28;20542;-77
2023/04/18 01:29:41;;;;;;;13.43;11.53;;;7.90;99.90;;;;;;5044207;28;20481;-77
2023/04/18 01:32:08;;;;;;;11.97;9.63;;;7.90;99.90;;;;;;5037010;28;20515;-77
2023/04/18 01:34:35;;;;;;;16.57;11.47;;;8.00;99.90;;;;;;5043003;28;20484;-77
2023/04/18 01:37:02;;;;;;;11.97;10.30;;;8.00;99.90;;;;;;5039820;28;20916;-77
2023/04/18 01:39:29;;;;;;;14.57;11.50;;;8.00;99.90;;;;;;5035327;28;20465;-77
2023/04/18 01:42:00;;;;;;;11.40;10.13;;;8.00;99.90;;;;;;5039260;28;20466;-78
2023/04/18 01:44:27;;;;;;;12.97;11.40;;;8.00;99.90;;;;;;5035271;28;20545;-77
2023/04/18 01:46:53;;;;;;;11.90;9.57;;;8.00;99.90;;;;;;5039127;28;20546;-77
2023/04/18 01:49:20;;;;;;;13.77;10.37;;;8.10;99.90;;;;;;5038384;28;20845;-77
2023/04/18 01:51:47;;;;;;;11.80;10.47;;;8.10;99.90;;;;;;5038657;28;21298;-77
2023/04/18 01:54:14;;;;;;;14.67;11.90;;;8.10;99.90;;;;;;5039073;28;20539;-77
2023/04/18 01:56:41;;;;;;;15.27;12.37;;;8.10;99.90;;;;;;5039121;28;20492;-77
2023/04/18 01:59:10;;;;;;;16.97;12.30;;;8.10;99.90;;;;;;5042541;28;20457;-77
2023/04/18 02:01:37;;;;;;;16.50;14.00;;;8.10;99.90;;;;;;5033988;28;20535;-77
2023/04/18 02:04:03;;;;;;;18.40;13.80;;;8.10;99.90;;;;;;5037746;28;20514;-77
2023/04/18 02:06:30;;;;;;;21.53;16.60;;;8.10;99.90;;;;;;5040630;28;20980;-77
2023/04/18 02:08:57;;;;;;;18.90;15.40;;;8.10;99.90;;;;;;5045226;28;20514;-77
2023/04/18 02:11:24;;;;;;;21.20;14.80;;;8.10;99.90;;;;;;5047207;28;20449;-77
2023/04/18 02:13:52;;;;;;;27.50;18.83;;;8.10;99.90;;;;;;5043008;28;20518;-77
2023/04/18 02:16:20;;;;;;;24.07;18.70;;;8.10;99.90;;;;;;5034823;28;20466;-77
2023/04/18 02:18:48;;;;;;;21.87;15.70;;;8.10;99.90;;;;;;5048505;28;20542;-77
2023/04/18 02:21:15;;;;;;;22.20;16.50;;;8.10;99.90;;;;;;5045214;28;21026;-77
2023/04/18 02:23:42;;;;;;;24.70;17.47;;;8.10;99.90;;;;;;5042980;28;20898;-77
2023/04/18 02:26:09;;;;;;;25.43;16.50;;;8.10;99.90;;;;;;5046325;28;20526;-77
2023/04/18 02:28:37;;;;;;;20.10;16.83;;;8.10;99.90;;;;;;5040744;28;20939;-77
2023/04/18 02:31:05;;;;;;;21.87;17.10;;;8.10;99.90;;;;;;5042084;28;20808;-77
2023/04/18 02:33:33;;;;;;;26.47;18.30;;;8.10;99.90;;;;;;5042399;28;20484;-77
2023/04/18 02:36:00;;;;;;;22.37;18.63;;;8.20;99.90;;;;;;5043887;28;20857;-77
2023/04/18 02:38:27;;;;;;;24.10;18.67;;;8.20;99.90;;;;;;5047678;28;20491;-77
2023/04/18 02:40:54;;;;;;;23.20;15.37;;;8.20;99.90;;;;;;5046920;28;20485;-77
2023/04/18 02:43:21;;;;;;;23.23;17.60;;;8.20;99.90;;;;;;5038028;28;20495;-77
2023/04/18 02:45:48;;;;;;;24.57;18.23;;;8.20;99.90;;;;;;5043234;28;20987;-77
2023/04/18 02:48:15;;;;;;;30.13;18.77;;;8.20;99.90;;;;;;5041065;28;20478;-77
2023/04/18 02:50:43;;;;;;;22.50;16.50;;;8.20;99.90;;;;;;5037966;28;20949;-77
2023/04/18 02:53:10;;;;;;;22.07;16.67;;;8.20;99.90;;;;;;5040513;28;20917;-77
2023/04/18 02:55:37;;;;;;;24.63;16.60;;;8.20;99.90;;;;;;5044642;28;20577;-77
2023/04/18 02:58:04;;;;;;;24.30;17.17;;;8.20;99.90;;;;;;5041359;28;21053;-77
2023/04/18 03:00:31;;;;;;;22.53;16.57;;;8.20;99.90;;;;;;5047781;28;20510;-77
2023/04/18 03:02:59;;;;;;;23.53;18.90;;;8.20;99.90;;;;;;5043839;28;20465;-77
2023/04/18 03:05:26;;;;;;;22.03;17.03;;;8.10;99.90;;;;;;5047058;28;21112;-77
2023/04/18 03:07:54;;;;;;;25.57;16.90;;;8.20;99.90;;;;;;5046969;28;20523;-77
2023/04/18 03:10:21;;;;;;;25.80;18.00;;;8.10;99.90;;;;;;5041477;28;20920;-77
2023/04/18 03:12:48;;;;;;;20.20;16.07;;;8.20;99.90;;;;;;5043390;28;20461;-77
2023/04/18 03:15:15;;;;;;;22.13;16.40;;;8.20;99.90;;;;;;5042610;28;20539;-77
2023/04/18 03:17:42;;;;;;;26.97;19.17;;;8.20;99.90;;;;;;5039778;28;20530;-77
2023/04/18 03:20:11;;;;;;;25.10;18.37;;;8.20;99.90;;;;;;5035724;28;21242;-77
2023/04/18 03:22:37;;;;;;;24.30;17.00;;;8.10;99.90;;;;;;5047090;28;20476;-77
2023/04/18 03:25:08;;;;;;;25.37;17.70;;;8.10;99.90;;;;;;5041337;28;20469;-77
2023/04/18 03:27:34;;;;;;;23.03;18.73;;;8.10;99.90;;;;;;5038298;28;20503;-77
2023/04/18 03:30:02;;;;;;;22.23;17.70;;;8.10;99.90;;;;;;5046281;28;20547;-76
2023/04/18 03:32:32;;;;;;;25.73;16.93;;;8.20;99.90;;;;;;5038332;28;20468;-77
2023/04/18 03:35:00;;;;;;;21.37;16.93;;;8.20;99.90;;;;;;5042050;28;20579;-77
2023/04/18 03:37:27;;;;;;;23.40;17.57;;;8.20;99.90;;;;;;5042223;28;20453;-77
2023/04/18 03:39:54;;;;;;;24.87;18.37;;;8.20;99.90;;;;;;5045431;28;21160;-77
2023/04/18 03:42:22;;;;;;;22.30;16.97;;;8.10;99.90;;;;;;5037238;28;21043;-77
2023/04/18 03:44:49;;;;;;;24.27;18.57;;;8.10;99.90;;;;;;5038444;28;20503;-77
2023/04/18 03:47:16;;;;;;;25.93;18.70;;;8.20;99.90;;;;;;5035174;28;20555;-77
2023/04/18 03:49:43;;;;;;;23.63;16.23;;;8.20;99.90;;;;;;5042115;28;20532;-77
2023/04/18 03:52:10;;;;;;;27.03;17.43;;;8.20;99.90;;;;;;5040183;28;20477;-77
2023/04/18 03:54:38;;;;;;;19.33;14.80;;;8.20;99.90;;;;;;5043099;28;20553;-77
2023/04/18 03:57:05;;;;;;;15.70;13.23;;;8.10;99.90;;;;;;5042457;28;20488;-77
2023/04/18 03:59:33;;;;;;;21.23;16.70;;;8.10;99.90;;;;;;5039401;28;20470;-77
2023/04/18 04:02:00;;;;;;;25.10;17.30;;;8.10;99.90;;;;;;5037496;28;20484;-76
2023/04/18 04:04:27;;;;;;;23.00;15.83;;;8.10;99.90;;;;;;5040835;28;20550;-77
2023/04/18 04:06:54;;;;;;;22.70;16.10;;;8.20;99.90;;;;;;5042585;28;20515;-77
2023/04/18 04:09:21;;;;;;;20.73;17.07;;;8.10;99.90;;;;;;5044679;28;20453;-76
2023/04/18 04:11:48;;;;;;;19.67;15.90;;;8.10;99.90;;;;;;5036360;28;21215;-77
2023/04/18 04:14:15;;;;;;;21.87;16.70;;;8.10;99.90;;;;;;5032108;28;20493;-78
2023/04/18 04:16:43;;;;;;;24.20;16.57;;;8.10;99.90;;;;;;5037334;28;20519;-78
2023/04/18 04:19:10;;;;;;;21.43;16.73;;;8.10;99.90;;;;;;5039983;28;20566;-78
2023/04/18 04:21:37;;;;;;;21.07;15.17;;;8.10;99.90;;;;;;5039671;28;20453;-78
2023/04/18 04:24:05;;;;;;;24.90;16.13;;;8.20;99.90;;;;;;5034554;28;20512;-78
2023/04/18 04:26:34;;;;;;;22.70;14.97;;;8.20;99.90;;;;;;5034098;28;20540;-78
2023/04/18 04:29:02;;;;;;;20.47;15.20;;;8.20;99.90;;;;;;5038829;28;20731;-78
2023/04/18 04:31:29;;;;;;;20.20;13.60;;;8.20;99.90;;;;;;5034750;28;20453;-78
2023/04/18 04:33:57;;;;;;;22.43;15.37;;;8.10;99.90;;;;;;5044546;28;20457;-78
2023/04/18 04:36:26;;;;;;;18.97;14.87;;;8.20;99.90;;;;;;5041652;28;20465;-78
2023/04/18 04:38:53;;;;;;;18.37;14.53;;;8.10;99.90;;;;;;5041100;28;20523;-78
2023/04/18 04:41:21;;;;;;;21.13;15.30;;;8.20;99.90;;;;;;5040830;28;20796;-78
2023/04/18 04:43:49;;;;;;;18.87;14.93;;;8.20;99.90;;;;;;5044047;28;20526;-78
2023/04/18 04:46:18;;;;;;;20.83;16.07;;;8.30;99.90;;;;;;5038960;28;20462;-78
2023/04/18 04:48:45;;;;;;;22.60;16.50;;;8.30;99.90;;;;;;5037860;28;20543;-78
2023/04/18 04:51:14;;;;;;;23.73;16.33;;;8.30;99.90;;;;;;5042430;28;20459;-78
2023/04/18 04:53:40;;;;;;;19.70;13.37;;;8.30;99.90;;;;;;5040890;28;20917;-78
2023/04/18 04:56:08;;;;;;;21.23;15.33;;;8.30;99.90;;;;;;5041653;28;20481;-78
2023/04/18 04:58:35;;;;;;;20.67;15.43;;;8.20;99.90;;;;;;5041465;28;20461;-78
2023/04/18 05:01:02;;;;;;;19.50;15.60;;;8.20;99.90;;;;;;5040339;28;20550;-78
2023/04/18 05:03:29;;;;;;;18.63;15.10;;;8.20;99.90;;;;;;5040724;28;20983;-78
2023/04/18 05:05:56;;;;;;;20.93;15.73;;;8.30;99.90;;;;;;5044454;28;20984;-78
2023/04/18 05:08:25;;;;;;;18.90;14.53;;;8.30;99.90;;;;;;5040351;28;21424;-78
2023/04/18 05:10:52;;;;;;;21.07;13.40;;;8.20;99.90;;;;;;5038367;28;20542;-78
2023/04/18 05:13:19;;;;;;;18.47;13.80;;;8.30;99.90;;;;;;5041687;28;20488;-80
2023/04/18 05:15:46;;;;;;;21.50;13.90;;;8.30;99.90;;;;;;5045457;28;20491;-78
2023/04/18 05:18:13;;;;;;;21.63;15.10;;;8.30;99.90;;;;;;5039532;28;20555;-78
2023/04/18 05:20:40;;;;;;;24.77;14.73;;;8.30;99.90;;;;;;5045979;28;20467;-78
2023/04/18 05:23:07;;;;;;;19.03;14.60;;;8.30;99.90;;;;;;5036306;28;20530;-78
2023/04/18 05:25:36;;;;;;;18.10;14.80;;;8.30;99.90;;;;;;5043988;28;20560;-78
2023/04/18 05:28:04;;;;;;;20.77;14.87;;;8.30;99.90;;;;;;5031347;28;20566;-79
2023/04/18 05:30:31;;;;;;;18.47;14.10;;;8.30;99.90;;;;;;5033939;28;20536;-78
2023/04/18 05:32:58;;;;;;;16.90;12.67;;;8.30;99.90;;;;;;5037075;28;20543;-78
2023/04/18 05:35:25;;;;;;;19.80;13.20;;;8.40;99.90;;;;;;5042297;28;20525;-79
2023/04/18 05:37:52;;;;;;;13.43;11.60;;;8.40;99.90;;;;;;5042400;28;21151;-78
2023/04/18 05:40:18;;;;;;;16.80;12.00;;;8.40;99.90;;;;;;5034888;28;20921;-78
2023/04/18 05:42:47;;;;;;;17.70;12.73;;;8.40;99.90;;;;;;5036503;28;20496;-79
2023/04/18 05:45:14;;;;;;;14.53;10.27;;;8.50;99.90;;;;;;5033676;28;20547;-79
2023/04/18 05:47:41;;;;;;;16.50;13.13;;;8.50;99.90;;;;;;5037771;28;20545;-78
2023/04/18 05:50:09;;;;;;;15.30;10.73;;;8.40;99.90;;;;;;5041171;28;20521;-78
2023/04/18 05:52:37;;;;;;;12.90;10.80;;;8.40;99.90;;;;;;5041892;28;20562;-78
2023/04/18 05:55:05;;;;;;;12.90;10.00;;;8.40;99.90;;;;;;5044012;28;20487;-78
2023/04/18 05:57:32;;;;;;;13.60;9.60;;;8.30;99.90;;;;;;5036649;28;20517;-78
2023/04/18 06:00:01;;;;;;;12.43;8.70;;;8.30;99.90;;;;;;5044058;28;20449;-78
2023/04/18 06:02:28;;;;;;;13.50;8.93;;;8.20;99.90;;;;;;5035788;28;20663;-78
2023/04/18 06:04:55;;;;;;;15.37;8.87;;;8.30;99.90;;;;;;5042433;28;20538;-78
2023/04/18 06:07:23;;;;;;;11.57;8.40;;;8.20;99.90;;;;;;5038131;28;20465;-78
2023/04/18 06:09:52;;;;;;;9.57;8.00;;;8.30;99.90;;;;;;5039545;28;20459;-78
2023/04/18 06:12:19;;;;;;;13.40;8.90;;;8.30;99.90;;;;;;5040138;28;20465;-78
2023/04/18 06:14:46;;;;;;;13.30;8.83;;;8.20;99.90;;;;;;5041996;28;21153;-78
2023/04/18 06:17:14;;;;;;;9.27;6.93;;;8.30;99.90;;;;;;5041757;28;20543;-78
2023/04/18 06:19:41;;;;;;;9.57;8.07;;;8.30;99.90;;;;;;5036635;28;20468;-77
2023/04/18 06:22:08;;;;;;;8.50;7.57;;;8.20;99.90;;;;;;5042176;28;20449;-77
2023/04/18 06:24:36;;;;;;;9.57;7.63;;;8.20;99.90;;;;;;5043530;28;20449;-77
2023/04/18 06:27:03;;;;;;;11.67;7.47;;;8.20;99.90;;;;;;5042780;28;20449;-78
2023/04/18 06:29:32;;;;;;;9.10;6.67;;;8.30;99.90;;;;;;5040499;28;20545;-77
2023/04/18 06:31:59;;;;;;;10.50;5.97;;;8.30;99.90;;;;;;5040844;28;21124;-78
2023/04/18 06:34:27;;;;;;;8.83;7.77;;;8.40;99.90;;;;;;5035741;28;20983;-78
2023/04/18 06:36:54;;;;;;;8.53;5.87;;;8.40;99.90;;;;;;5041728;28;20550;-78
2023/04/18 06:39:21;;;;;;;6.93;5.80;;;8.40;99.90;;;;;;5039193;28;20546;-78
2023/04/18 06:41:48;;;;;;;8.30;5.90;;;8.40;99.90;;;;;;5032383;28;20993;-79
2023/04/18 06:44:15;;;;;;;6.97;6.20;;;8.40;99.90;;;;;;5035446;28;20466;-77
2023/04/18 06:46:42;;;;;;;6.80;5.80;;;8.40;99.90;;;;;;5033012;28;21016;-78
2023/04/18 06:49:09;;;;;;;5.50;5.00;;;8.50;99.90;;;;;;5036210;28;20570;-78
2023/04/18 06:51:38;;;;;;;7.53;4.77;;;8.50;99.90;;;;;;5036614;28;20548;-78
2023/04/18 06:54:05;;;;;;;5.63;4.30;;;8.50;99.90;;;;;;5044046;28;20503;-78
2023/04/18 06:56:32;;;;;;;6.33;4.10;;;8.50;99.90;;;;;;5045707;28;20501;-78
2023/04/18 06:58:59;;;;;;;8.53;5.67;;;8.50;99.90;;;;;;5046654;28;20471;-76
2023/04/18 07:01:26;;;;;;;5.03;4.53;;;8.60;99.90;;;;;;5033245;28;20547;-78
2023/04/18 07:03:53;;;;;;;5.77;4.27;;;8.60;99.90;;;;;;5045441;28;20507;-78
2023/04/18 07:06:20;;;;;;;5.20;4.20;;;8.70;99.90;;;;;;5040046;28;20539;-77
2023/04/18 07:08:48;;;;;;;5.80;5.30;;;8.70;99.90;;;;;;5042589;28;20484;-77
2023/04/18 07:11:17;;;;;;;5.30;4.30;;;8.80;99.90;;;;;;5045756;28;20570;-77
2023/04/18 07:13:46;;;;;;;6.57;4.80;;;8.80;99.90;;;;;;5042138;28;20476;-77
2023/04/18 07:16:13;;;;;;;5.27;4.77;;;8.70;99.90;;;;;;5044428;28;20489;-76
2023/04/18 07:18:40;;;;;;;5.00;4.17;;;8.80;99.90;;;;;;5042789;28;20492;-77
2023/04/18 07:21:07;;;;;;;6.37;3.80;;;8.90;99.90;;;;;;5044642;28;20441;-77
2023/04/18 07:23:34;;;;;;;7.00;5.40;;;8.90;99.90;;;;;;5038961;28;20449;-77
2023/04/18 07:26:04;;;;;;;8.23;6.67;;;8.90;99.90;;;;;;5042931;28;20489;-77
2023/04/18 07:28:31;;;;;;;29.33;16.40;;;8.90;99.90;;;;;;5043446;28;20465;-77
2023/04/18 07:30:59;;;;;;;27.20;18.10;;;9.00;99.90;;;;;;5046140;28;20838;-77
2023/04/18 07:33:30;;;;;;;13.53;9.83;;;9.10;99.90;;;;;;5042254;28;20473;-77
2023/04/18 07:35:57;;;;;;;8.70;7.83;;;9.20;99.90;;;;;;5045357;28;20486;-77
2023/04/18 07:38:24;;;;;;;19.03;11.50;;;9.20;99.90;;;;;;5038432;28;20559;-77
2023/04/18 07:40:57;;;;;;;15.63;12.83;;;9.20;99.90;;;;;;5042418;28;20547;-77
2023/04/18 07:43:25;;;;;;;15.00;11.73;;;9.30;99.90;;;;;;5042412;28;20473;-78
2023/04/18 07:45:52;;;;;;;10.97;9.83;;;9.50;99.90;;;;;;5043204;28;20469;-78
2023/04/18 07:48:21;;;;;;;9.70;8.73;;;9.50;99.90;;;;;;5042938;28;20453;-78
2023/04/18 07:50:48;;;;;;;12.73;8.97;;;9.40;99.90;;;;;;5038944;28;20800;-77
2023/04/18 07:53:14;;;;;;;11.60;8.77;;;9.50;99.90;;;;;;5040372;28;20834;-77
2023/04/18 07:55:42;;;;;;;10.40;9.40;;;9.50;99.90;;;;;;5042689;28;20550;-78
2023/04/18 07:58:10;;;;;;;9.43;8.00;;;9.50;99.90;;;;;;5043385;28;20514;-77
2023/04/18 08:00:38;;;;;;;10.20;9.20;;;9.50;99.90;;;;;;5037956;28;20934;-77
2023/04/18 08:03:06;;;;;;;12.50;9.43;;;9.50;99.90;;;;;;5045775;28;20481;-77
2023/04/18 08:05:33;;;;;;;12.70;11.00;;;9.50;99.90;;;;;;5031799;28;20462;-77
2023/04/18 08:08:00;;;;;;;12.10;9.77;;;9.50;99.90;;;;;;5048119;28;20449;-77
2023/04/18 08:10:27;;;;;;;11.17;10.00;;;9.40;99.90;;;;;;5034906;28;20528;-77
2023/04/18 08:12:54;;;;;;;12.40;9.73;;;9.50;99.90;;;;;;5039837;28;21163;-77
2023/04/18 08:15:21;;;;;;;10.67;8.30;;;9.50;99.90;;;;;;5042200;28;20481;-77
2023/04/18 08:17:50;;;;;;;9.00;8.10;;;9.50;99.90;;;;;;5045867;28;20538;-77
2023/04/18 08:20:17;;;;;;;13.00;10.83;;;9.40;99.90;;;;;;5042330;28;20839;-77
2023/04/18 08:22:44;;;;;;;13.53;12.03;;;9.40;99.90;;;;;;5045166;28;20464;-77
2023/04/18 08:25:11;;;;;;;13.60;10.90;;;9.50;99.90;;;;;;5040504;28;20470;-78
2023/04/18 08:27:38;;;;;;;12.53;10.23;;;9.50;99.90;;;;;;5041448;28;20465;-77
2023/04/18 08:30:07;;;;;;;13.57;11.03;;;9.50;99.90;;;;;;5043917;28;20496;-77
2023/04/18 08:32:35;;;;;;;11.63;10.30;;;9.60;99.90;;;;;;5033053;28;20493;-77
2023/04/18 08:35:04;;;;;;;14.93;11.73;;;9.70;99.90;;;;;;5044375;28;20497;-77
2023/04/18 08:37:34;;;;;;;14.10;11.67;;;9.60;99.90;;;;;;5042847;28;21703;-76
2023/04/18 08:40:00;;;;;;;15.60;12.33;;;9.70;99.90;;;;;;5039397;28;20531;-77
2023/04/18 08:42:28;;;;;;;17.13;12.83;;;10.00;99.90;;;;;;5039398;28;20461;-78
2023/04/18 08:44:56;;;;;;;15.73;12.00;;;10.10;99.90;;;;;;5040876;28;20501;-78
2023/04/18 08:47:24;;;;;;;16.17;13.53;;;10.20;99.90;;;;;;5032320;28;20492;-78
2023/04/18 08:49:52;;;;;;;20.43;13.73;;;10.30;99.90;;;;;;5037755;28;20564;-78
2023/04/18 08:52:22;;;;;;;18.10;13.37;;;10.30;99.90;;;;;;5039115;28;20991;-77
2023/04/18 08:54:50;;;;;;;20.80;14.17;;;10.50;99.90;;;;;;5043845;28;21178;-77
2023/04/18 08:57:25;;;;;;;15.30;11.53;;;10.60;99.90;;;;;;5035030;28;20564;-77
2023/04/18 08:59:54;;;;;;;15.90;13.50;;;10.60;99.90;;;;;;5043568;28;20519;-77
2023/04/18 09:02:22;;;;;;;22.53;14.47;;;10.70;99.90;;;;;;5038806;28;20465;-78
2023/04/18 09:04:51;;;;;;;16.67;12.53;;;10.70;99.90;;;;;;5040116;28;20457;-78
2023/04/18 09:07:21;;;;;;;18.17;13.23;;;10.70;99.90;;;;;;5038251;28;20469;-76
2023/04/18 09:09:49;;;;;;;13.83;11.17;;;10.60;99.90;;;;;;5044828;28;20457;-76
2023/04/18 09:12:21;;;;;;;16.13;11.77;;;10.50;99.90;;;;;;5043614;28;20452;-77
2023/04/18 09:14:50;;;;;;;14.77;11.17;;;10.40;99.90;;;;;;5036729;28;20496;-76
2023/04/18 09:17:33;;;;;;;14.13;12.63;;;10.30;99.90;;;;;;5043052;28;20568;-77
2023/04/18 09:20:01;;;;;;;12.70;10.20;;;10.30;99.90;;;;;;5037143;28;20469;-77
2023/04/18 09:22:45;;;;;;;11.47;9.17;;;10.30;99.90;;;;;;5031214;28;20454;-76
2023/04/18 09:25:23;;;;;;;10.07;7.50;;;10.30;99.90;;;;;;5038205;28;20466;-76
2023/04/18 09:27:51;;;;;;;11.63;8.57;;;10.40;99.90;;;;;;5033259;28;20547;-77
2023/04/18 09:30:30;;;;;;;10.57;7.97;;;10.40;99.90;;;;;;5037831;28;20449;-77
2023/04/18 09:32:58;;;;;;;12.77;10.13;;;10.40;99.90;;;;;;5043105;28;20465;-77
2023/04/18 09:35:26;;;;;;;9.33;8.33;;;10.40;99.90;;;;;;5042319;28;20452;-76
2023/04/18 09:37:54;;;;;;;9.37;8.47;;;10.50;99.90;;;;;;5042173;28;20468;-78
2023/04/18 09:40:22;;;;;;;13.80;10.40;;;10.50;99.90;;;;;;5043222;28;20449;-77
2023/04/18 09:42:52;;;;;;;10.30;7.80;;;10.50;99.90;;;;;;5036392;28;20546;-77
2023/04/18 09:45:19;;;;;;;11.23;9.40;;;10.60;99.90;;;;;;5042371;28;20453;-77
2023/04/18 09:47:46;;;;;;;9.07;7.53;;;10.60;99.90;;;;;;5037362;28;20837;-78
2023/04/18 09:50:15;;;;;;;8.40;7.50;;;10.50;99.90;;;;;;5043867;28;20538;-78
2023/04/18 09:52:43;;;;;;;12.93;8.30;;;10.50;99.90;;;;;;5041059;28;20461;-78
2023/04/18 09:55:16;;;;;;;8.43;7.47;;;10.50;99.90;;;;;;5044379;28;20473;-77
2023/04/18 09:57:45;;;;;;;7.93;6.40;;;10.50;99.90;;;;;;5043744;28;20593;-78
2023/04/18 10:00:19;;;;;;;8.13;7.33;;;10.40;99.90;;;;;;5043680;28;20510;-78
2023/04/18 10:02:51;;;;;;;10.30;7.63;;;10.50;99.90;;;;;;5036710;28;20533;-78
2023/04/18 10:05:20;;;;;;;8.67;7.27;;;10.40;99.90;;;;;;5038465;28;20529;-78
2023/04/18 10:07:49;;;;;;;7.80;6.83;;;10.50;99.90;;;;;;5036161;28;20522;-77
2023/04/18 10:10:18;;;;;;;7.97;7.17;;;10.60;99.90;;;;;;5038461;28;20446;-77
2023/04/18 10:12:46;;;;;;;7.80;6.60;;;10.60;99.90;;;;;;5043114;28;20511;-77
2023/04/18 10:15:15;;;;;;;8.57;5.50;;;10.60;99.90;;;;;;5039225;28;20469;-78
2023/04/18 10:17:44;;;;;;;5.00;4.50;;;10.60;99.90;;;;;;5044984;28;20538;-78
2023/04/18 10:20:19;;;;;;;5.30;4.80;;;10.50;99.90;;;;;;5033605;28;20482;-78
2023/04/18 10:22:47;;;;;;;5.57;4.30;;;10.60;99.90;;;;;;5034977;28;20471;-78
2023/04/18 10:25:14;;;;;;;5.07;4.37;;;10.50;99.90;;;;;;5044525;28;20762;-78
2023/04/18 10:27:58;;;;;;;4.40;4.03;;;10.40;99.90;;;;;;5030020;28;20860;-78
2023/04/18 10:30:50;;;;;;;6.97;4.60;;;10.40;99.90;;;;;;5028805;28;21001;-78
2023/04/18 10:33:31;;;;;;;4.40;4.10;;;10.30;99.90;;;;;;5039999;28;20475;-78
2023/04/18 10:36:16;;;;;;;4.60;4.20;;;10.30;99.90;;;;;;5034085;28;20511;-78
2023/04/18 10:38:48;;;;;;;4.90;4.40;;;10.40;99.90;;;;;;5033897;28;20856;-78
2023/04/18 10:41:21;;;;;;;4.70;4.33;;;10.40;99.90;;;;;;5041005;28;20849;-78
2023/04/18 10:44:40;;;;;;;5.57;5.00;;;10.40;99.90;;;;;;5036144;28;20511;-77
2023/04/18 10:47:31;;;;;;;5.20;4.70;;;10.50;99.90;;;;;;5048148;28;20510;-77
2023/04/18 10:50:03;;;;;;;5.37;4.87;;;10.40;99.90;;;;;;5042504;28;20457;-78
2023/04/18 10:52:31;;;;;;;6.53;5.27;;;10.40;99.90;;;;;;5042091;28;20924;-77
2023/04/18 10:55:15;;;;;;;6.83;6.20;;;10.40;99.90;;;;;;5035338;28;20933;-77
2023/04/18 10:57:43;;;;;;;5.47;4.97;;;10.40;99.90;;;;;;5041269;28;21019;-77
2023/04/18 11:00:14;;;;;;;5.40;4.70;;;10.30;99.90;;;;;;5041809;28;20524;-78
2023/04/18 11:02:49;;;;;;;6.73;5.50;;;10.30;99.90;;;;;;5041294;28;20473;-77
2023/04/18 11:05:20;;;;;;;6.47;4.70;;;10.20;99.90;;;;;;5041627;28;20480;-77
2023/04/18 11:07:47;;;;;;;5.17;4.67;;;10.30;99.90;;;;;;5044249;28;20471;-77
2023/04/18 11:10:18;;;;;;;6.90;5.80;;;10.30;99.90;;;;;;5044817;28;20568;-78
2023/04/18 11:12:46;;;;;;;5.27;4.77;;;10.30;99.90;;;;;;5039680;28;20540;-78
2023/04/18 11:15:16;;;;;;;5.93;5.20;;;10.20;99.90;;;;;;5045856;28;20485;-76
2023/04/18 11:17:44;;;;;;;6.73;5.90;;;10.20;99.90;;;;;;5039129;28;20520;-77
2023/04/18 11:20:13;;;;;;;7.27;5.83;;;10.30;99.90;;;;;;5037257;28;20464;-77
2023/04/18 11:22:45;;;;;;;8.03;5.90;;;10.30;99.90;;;;;;5042163;28;20453;-77
2023/04/18 11:25:12;;;;;;;7.37;5.43;;;10.40;99.90;;;;;;5047695;28;20449;-77
2023/04/18 11:27:41;;;;;;;6.70;5.40;;;10.40;99.90;;;;;;5039514;28;20468;-77
2023/04/18 11:30:09;;;;;;;6.10;4.90;;;10.40;99.90;;;;;;5042201;28;20546;-76
2023/04/18 11:32:37;;;;;;;6.80;5.70;;;10.50;99.90;;;;;;5041783;28;20472;-76
2023/04/18 11:35:05;;;;;;;6.63;6.03;;;10.70;99.90;;;;;;5047246;28;20481;-76
2023/04/18 11:37:32;;;;;;;5.93;5.30;;;10.60;99.90;;;;;;5043972;28;20489;-77
2023/04/18 11:39:59;;;;;;;6.10;5.10;;;10.60;99.90;;;;;;5034436;28;20544;-77
2023/04/18 11:42:28;;;;;;;10.60;5.63;;;10.70;99.90;;;;;;5036623;28;20496;-77
2023/04/18 11:44:55;;;;;;;8.50;6.43;;;10.80;99.90;;;;;;5043548;28;20454;-77
2023/04/18 11:47:23;;;;;;;6.67;5.70;;;10.90;99.90;;;;;;5043969;28;20445;-77
2023/04/18 11:49:57;;;;;;;6.83;5.17;;;10.90;99.90;;;;;;5031780;28;20846;-77
2023/04/18 11:52:25;;;;;;;5.77;4.40;;;11.00;99.90;;;;;;5041450;28;20595;-76
2023/04/18 11:54:52;;;;;;;5.13;4.63;;;11.30;99.90;;;;;;5041802;28;20481;-76
2023/04/18 11:57:24;;;;;;;8.10;4.60;;;11.40;99.90;;;;;;5042449;28;20576;-77
2023/04/18 11:59:53;;;;;;;6.43;5.20;;;11.40;99.90;;;;;;5040084;28;20479;-77
2023/04/18 12:02:21;;;;;;;4.50;4.10;;;11.40;99.90;;;;;;5041369;28;20488;-77
2023/04/18 12:04:53;;;;;;;5.83;4.70;;;11.60;99.90;;;;;;5037461;28;20493;-77
2023/04/18 12:07:40;;;;;;;4.03;3.73;;;11.60;99.90;;;;;;5047626;28;20467;-76
2023/04/18 12:10:17;;;;;;;3.90;3.50;;;11.50;99.90;;;;;;5037075;28;20453;-77
2023/04/18 12:12:48;;;;;;;4.27;3.87;;;11.50;99.90;;;;;;5045394;28;20476;-77
2023/04/18 12:15:16;;;;;;;3.40;3.07;;;11.60;99.90;;;;;;5037741;28;20540;-77
2023/04/18 12:17:44;;;;;;;3.20;2.90;;;11.60;99.90;;;;;;5044176;28;20484;-77
2023/04/18 12:20:12;;;;;;;3.20;3.00;;;11.50;99.90;;;;;;5041808;28;20450;-77
2023/04/18 12:22:42;;;;;;;5.53;5.03;;;11.40;99.90;;;;;;5041675;28;20464;-77
2023/04/18 12:25:18;;;;;;;4.13;3.73;;;11.30;99.90;;;;;;5037259;28;20531;-77
2023/04/18 12:27:49;;;;;;;4.13;3.50;;;11.30;99.90;;;;;;5041931;28;20446;-77
2023/04/18 12:30:20;;;;;;;3.53;2.90;;;11.20;99.90;;;;;;5047049;28;20493;-77
2023/04/18 12:32:51;;;;;;;4.10;3.70;;;11.10;99.90;;;;;;5034201;28;20560;-77
2023/04/18 12:35:20;;;;;;;5.33;3.70;;;11.00;99.90;;;;;;5038222;28;20477;-77
2023/04/18 12:37:49;;;;;;;3.93;3.57;;;11.00;99.90;;;;;;5028848;28;20579;-77
2023/04/18 12:40:17;;;;;;;3.57;3.27;;;10.90;99.90;;;;;;5039398;28;20986;-78
2023/04/18 12:42:45;;;;;;;3.63;3.23;;;10.90;99.90;;;;;;5042964;28;21190;-77
2023/04/18 12:45:15;;;;;;;4.63;2.37;;;10.90;99.90;;;;;;5042031;28;20449;-77
2023/04/18 12:47:43;;;;;;;3.17;2.87;;;10.80;99.90;;;;;;5042597;28;20482;-77
2023/04/18 12:50:12;;;;;;;3.50;3.20;;;10.90;99.90;;;;;;5039912;28;20582;-77